createdAt,value
2023-02-06T00:00:44.027Z,878.93
2023-02-06T00:03:50.912Z,840.20
2023-02-06T00:06:59.406Z,817.85
2023-02-06T00:10:06.297Z,852.08
2023-02-06T00:13:12.409Z,834.16
2023-02-06T00:16:21.373Z,865.50
2023-02-06T00:19:27.385Z,897.92
2023-02-06T00:22:37.182Z,893.34
2023-02-06T00:25:43.149Z,865.64
2023-02-06T00:28:50.609Z,842.66
2023-02-06T00:31:56.892Z,873.20
2023-02-06T00:35:11.125Z,863.47
2023-02-06T00:38:22.345Z,816.12
2023-02-06T00:41:29.126Z,849.82
2023-02-06T00:44:35.054Z,839.22
2023-02-06T00:47:41.855Z,839.67
2023-02-06T00:50:50.494Z,944.38
2023-02-06T00:53:59.978Z,996.38
2023-02-06T00:57:05.895Z,923.43
2023-02-06T01:00:16.041Z,832.90
2023-02-06T01:03:21.912Z,862.48
2023-02-06T01:06:28.769Z,816.28
2023-02-06T01:09:37.401Z,769.89
2023-02-06T01:12:44.298Z,786.27
2023-02-06T01:15:52.163Z,767.61
2023-02-06T01:18:59.367Z,775.19
2023-02-06T01:22:05.351Z,810.78
2023-02-06T01:25:14.905Z,805.83
2023-02-06T01:28:21.165Z,759.51
2023-02-06T01:31:32.025Z,757.77
2023-02-06T01:34:37.919Z,789.15
2023-02-06T01:37:45.323Z,781.00
2023-02-06T01:41:00.371Z,820.18
2023-02-06T01:44:22.702Z,891.03
2023-02-06T01:47:30.396Z,906.26
2023-02-06T01:50:40.367Z,900.12
2023-02-06T01:53:56.792Z,881.19
2023-02-06T01:57:14.545Z,865.75
2023-02-06T02:00:27.640Z,750.26
2023-02-06T02:03:39.997Z,788.43
2023-02-06T02:06:47.461Z,804.66
2023-02-06T02:09:58.749Z,852.13
2023-02-06T02:13:17.603Z,927.00
2023-02-06T02:16:39.770Z,924.12
2023-02-06T02:20:48.869Z,905.85
2023-02-06T02:24:07.943Z,984.17
2023-02-06T02:27:47.772Z,805.99
2023-02-06T02:31:41.318Z,900.74
2023-02-06T02:35:25.765Z,878.82
2023-02-06T02:38:55.057Z,895.02
2023-02-06T02:42:14.743Z,894.60
2023-02-06T02:45:33.329Z,869.71
2023-02-06T02:48:47.246Z,781.34
2023-02-06T02:51:58.666Z,808.07
2023-02-06T02:55:23.603Z,821.92
2023-02-06T02:58:44.796Z,873.92
2023-02-06T03:02:02.637Z,960.23
2023-02-06T03:05:14.754Z,934.93
2023-02-06T03:08:47.145Z,901.81
2023-02-06T03:12:14.670Z,899.11
2023-02-06T03:15:34.942Z,885.69
2023-02-06T03:18:50.078Z,785.18
2023-02-06T03:21:57.001Z,827.71
2023-02-06T03:25:13.316Z,820.89
2023-02-06T03:28:31.164Z,898.29
2023-02-06T03:31:45.882Z,873.94
2023-02-06T03:35:06.465Z,902.51
2023-02-06T03:38:13.860Z,860.57
2023-02-06T03:41:34.969Z,849.97
2023-02-06T03:44:57.520Z,823.74
2023-02-06T03:48:18.294Z,806.70
2023-02-06T03:51:31.919Z,790.89
2023-02-06T03:54:46.100Z,800.99
2023-02-06T03:58:09.031Z,798.61
2023-02-06T04:01:17.540Z,803.50
2023-02-06T04:04:29.372Z,793.45
2023-02-06T04:07:43.063Z,768.55
2023-02-06T04:10:49.546Z,775.45
2023-02-06T04:13:58.920Z,779.96
2023-02-06T04:17:09.799Z,753.89
2023-02-06T04:20:17.106Z,752.14
2023-02-06T04:23:24.291Z,766.31
2023-02-06T04:26:31.201Z,731.44
2023-02-06T04:29:39.724Z,725.73
2023-02-06T04:32:46.786Z,726.84
2023-02-06T04:35:52.726Z,733.13
2023-02-06T04:38:59.549Z,720.44
2023-02-06T04:42:05.836Z,717.42
2023-02-06T04:45:15.745Z,729.77
2023-02-06T04:48:24.714Z,733.68
2023-02-06T04:51:31.491Z,797.44
2023-02-06T04:54:37.459Z,807.94
2023-02-06T04:57:44.539Z,779.05
2023-02-06T05:00:58.452Z,938.65
2023-02-06T05:04:05.460Z,913.47
2023-02-06T05:07:11.379Z,956.42
2023-02-06T05:10:18.691Z,928.55
2023-02-06T05:13:30.480Z,902.97
2023-02-06T05:16:39.901Z,915.90
2023-02-06T05:19:46.119Z,956.09
2023-02-06T05:22:52.902Z,1105.72
2023-02-06T05:25:59.806Z,1110.41
2023-02-06T05:29:27.770Z,1056.34
2023-02-06T05:32:36.266Z,1084.83
2023-02-06T05:35:43.904Z,1099.56
2023-02-06T05:38:54.122Z,1133.80
2023-02-06T05:42:00.960Z,1345.61
2023-02-06T05:45:08.586Z,1419.74
2023-02-06T05:48:17.933Z,1404.43
2023-02-06T05:51:23.778Z,1426.27
2023-02-06T05:54:30.615Z,1741.27
2023-02-06T05:57:36.693Z,2254.97
2023-02-06T06:00:51.493Z,2368.85
2023-02-06T06:04:09.723Z,1916.43
2023-02-06T06:07:16.691Z,1705.35
2023-02-06T06:10:22.940Z,1560.02
2023-02-06T06:13:30.611Z,1317.13
2023-02-06T06:16:41.788Z,1217.78
2023-02-06T06:19:51.225Z,1235.58
2023-02-06T06:22:57.338Z,1328.89
2023-02-06T06:26:04.139Z,1372.35
2023-02-06T06:29:15.179Z,1267.96
2023-02-06T06:32:22.488Z,1188.52
2023-02-06T06:35:31.180Z,1117.92
2023-02-06T06:38:38.707Z,1124.35
2023-02-06T06:41:44.950Z,1108.71
2023-02-06T06:44:51.799Z,994.00
2023-02-06T06:47:57.914Z,884.25
2023-02-06T06:51:07.841Z,797.17
2023-02-06T06:54:14.702Z,759.44
2023-02-06T06:57:23.828Z,819.22
2023-02-06T07:00:41.422Z,850.29
2023-02-06T07:03:49.265Z,745.09
2023-02-06T07:06:57.877Z,686.60
2023-02-06T07:10:04.867Z,676.73
2023-02-06T07:13:11.027Z,639.69
2023-02-06T07:16:17.910Z,568.27
2023-02-06T07:19:24.308Z,521.23
2023-02-06T07:22:51.528Z,510.53
2023-02-06T07:26:08.902Z,461.27
2023-02-06T07:29:27.213Z,468.65
2023-02-06T07:32:33.999Z,462.84
2023-02-06T07:35:39.853Z,461.07
2023-02-06T07:38:51.249Z,471.78
2023-02-06T07:41:57.290Z,444.35
2023-02-06T07:45:17.152Z,431.71
2023-02-06T07:48:23.215Z,440.78
2023-02-06T07:51:33.042Z,462.90
2023-02-06T07:54:41.643Z,455.26
2023-02-06T07:57:48.490Z,434.98
2023-02-06T08:00:54.963Z,393.29
2023-02-06T08:04:08.897Z,390.58
2023-02-06T08:07:16.713Z,386.31
2023-02-06T08:10:32.929Z,399.04
2023-02-06T08:13:43.070Z,441.33
2023-02-06T08:16:49.884Z,445.86
2023-02-06T08:20:06.837Z,456.32
2023-02-06T08:23:13.607Z,443.40
2023-02-06T08:26:22.380Z,393.06
2023-02-06T08:29:30.041Z,375.29
2023-02-06T08:32:39.481Z,341.36
2023-02-06T08:35:52.378Z,344.68
2023-02-06T08:39:09.873Z,368.94
2023-02-06T08:42:19.273Z,362.85
2023-02-06T08:45:30.426Z,340.66
2023-02-06T08:48:37.248Z,322.36
2023-02-06T08:51:44.372Z,323.89
2023-02-06T08:54:54.135Z,268.97
2023-02-06T08:58:08.901Z,259.36
2023-02-06T09:01:26.731Z,234.26
2023-02-06T09:04:35.759Z,242.73
2023-02-06T09:07:42.514Z,238.53
2023-02-06T09:10:48.420Z,222.25
2023-02-06T09:14:01.303Z,201.21
2023-02-06T09:17:07.478Z,154.91
2023-02-06T09:20:14.585Z,156.89
2023-02-06T09:23:20.826Z,148.80
2023-02-06T09:26:30.918Z,142.95
2023-02-06T09:29:39.670Z,148.41
2023-02-06T09:32:46.707Z,133.09
2023-02-06T09:35:52.746Z,137.74
2023-02-06T09:39:00.796Z,144.34
2023-02-06T09:42:15.072Z,143.56
2023-02-06T09:45:30.395Z,136.62
2023-02-06T09:48:42.325Z,137.03
2023-02-06T09:52:29.240Z,116.70
2023-02-06T09:55:47.511Z,115.12
2023-02-06T09:59:07.541Z,115.36
2023-02-06T10:02:47.932Z,105.82
2023-02-06T10:06:14.381Z,107.98
2023-02-06T10:09:31.612Z,111.57
2023-02-06T10:12:47.995Z,118.55
2023-02-06T10:16:02.286Z,109.81
2023-02-06T10:19:24.472Z,117.24
2023-02-06T10:22:42.071Z,113.93
2023-02-06T10:26:17.590Z,113.16
2023-02-06T10:29:31.876Z,122.49
2023-02-06T10:32:54.198Z,128.54
2023-02-06T10:36:25.617Z,131.74
2023-02-06T10:40:04.361Z,139.17
2023-02-06T10:43:29.354Z,147.52
2023-02-06T10:46:48.433Z,174.33
2023-02-06T10:50:05.050Z,193.07
2023-02-06T10:53:25.112Z,174.81
2023-02-06T10:56:38.804Z,176.21
2023-02-06T10:59:57.740Z,174.80
2023-02-06T11:03:11.015Z,164.54
2023-02-06T11:06:26.008Z,164.84
2023-02-06T11:09:40.245Z,159.37
2023-02-06T11:13:03.944Z,160.87
2023-02-06T11:16:23.660Z,159.25
2023-02-06T11:19:40.603Z,155.98
2023-02-06T11:22:53.012Z,149.08
2023-02-06T11:26:17.493Z,143.70
2023-02-06T11:29:30.000Z,135.66
2023-02-06T11:32:52.901Z,134.49
2023-02-06T11:36:33.021Z,148.81
2023-02-06T11:39:42.608Z,163.85
2023-02-06T11:42:55.664Z,156.72
2023-02-06T11:46:21.615Z,170.83
2023-02-06T11:49:31.945Z,175.53
2023-02-06T11:52:38.983Z,174.93
2023-02-06T11:55:45.623Z,183.68
2023-02-06T11:59:14.890Z,183.46
2023-02-06T12:02:36.674Z,190.66
2023-02-06T12:05:47.357Z,201.68
2023-02-06T12:08:56.620Z,203.99
2023-02-06T12:12:13.331Z,190.17
2023-02-06T12:15:45.369Z,182.86
2023-02-06T12:19:00.683Z,209.41
2023-02-06T12:22:21.613Z,183.04
2023-02-06T12:25:36.107Z,173.00
2023-02-06T12:28:57.827Z,172.03
2023-02-06T12:32:18.379Z,165.15
2023-02-06T12:35:45.425Z,187.52
2023-02-06T12:39:01.304Z,186.08
2023-02-06T12:42:37.218Z,176.30
2023-02-06T12:45:55.211Z,148.90
2023-02-06T12:49:18.831Z,144.05
2023-02-06T12:52:34.579Z,156.56
2023-02-06T12:56:00.631Z,149.74
2023-02-06T13:00:10.960Z,156.97
2023-02-06T13:03:30.446Z,159.74
2023-02-06T13:07:02.727Z,174.40
2023-02-06T13:10:30.057Z,147.06
2023-02-06T13:13:43.749Z,145.30
2023-02-06T13:16:58.435Z,143.58
2023-02-06T13:20:17.860Z,146.52
2023-02-06T13:23:29.568Z,142.11
2023-02-06T13:27:16.728Z,146.76
2023-02-06T13:30:51.070Z,142.55
2023-02-06T13:34:04.443Z,138.84
2023-02-06T13:37:30.925Z,144.53
2023-02-06T13:40:40.825Z,143.34
2023-02-06T13:43:57.111Z,138.92
2023-02-06T13:47:34.885Z,158.32
2023-02-06T13:51:17.028Z,172.52
2023-02-06T13:55:06.218Z,158.91
2023-02-06T13:58:48.808Z,183.31
2023-02-06T14:01:57.611Z,178.71
2023-02-06T14:05:07.991Z,157.24
2023-02-06T14:08:30.588Z,180.23
2023-02-06T14:12:17.997Z,171.31
2023-02-06T14:15:45.143Z,181.36
2023-02-06T14:19:09.075Z,168.02
2023-02-06T14:22:38.189Z,150.74
2023-02-06T14:26:16.000Z,157.74
2023-02-06T14:29:49.069Z,174.43
2023-02-06T14:33:19.625Z,205.82
2023-02-06T14:37:04.001Z,202.03
2023-02-06T14:40:22.674Z,181.09
2023-02-06T14:43:38.278Z,151.31
2023-02-06T14:46:45.297Z,145.69
2023-02-06T14:49:58.331Z,149.98
2023-02-06T14:53:12.632Z,290.02
2023-02-06T14:56:27.165Z,316.08
2023-02-06T14:59:34.129Z,276.52
2023-02-06T15:02:41.328Z,252.20
2023-02-06T15:05:50.448Z,226.53
2023-02-06T15:08:57.761Z,194.96
2023-02-06T15:12:21.536Z,216.57
2023-02-06T15:15:32.357Z,243.06
2023-02-06T15:18:40.449Z,223.01
2023-02-06T15:21:50.927Z,236.18
2023-02-06T15:25:22.112Z,206.84
2023-02-06T15:28:33.914Z,180.25
2023-02-06T15:31:39.988Z,166.61
2023-02-06T15:34:49.916Z,171.03
2023-02-06T15:37:59.731Z,180.44
2023-02-06T15:41:11.632Z,174.08
2023-02-06T15:44:31.276Z,176.66
2023-02-06T15:47:39.280Z,219.61
2023-02-06T15:50:57.359Z,233.00
2023-02-06T15:54:23.851Z,205.10
2023-02-06T15:57:36.657Z,217.19
2023-02-06T16:00:45.625Z,236.35
2023-02-06T16:04:01.476Z,280.97
2023-02-06T16:07:19.367Z,312.53
2023-02-06T16:10:32.120Z,364.31
2023-02-06T16:13:40.216Z,354.32
2023-02-06T16:17:01.363Z,447.32
2023-02-06T16:20:33.407Z,474.62
2023-02-06T16:23:49.850Z,365.32
2023-02-06T16:26:59.499Z,306.14
2023-02-06T16:30:06.356Z,319.52
2023-02-06T16:33:28.961Z,275.90
2023-02-06T16:36:36.411Z,268.77
2023-02-06T16:39:45.541Z,296.90
2023-02-06T16:42:54.319Z,291.23
2023-02-06T16:46:02.872Z,268.75
2023-02-06T16:49:15.148Z,262.29
2023-02-06T16:52:28.473Z,275.20
2023-02-06T16:55:34.699Z,311.73
2023-02-06T16:58:46.729Z,334.41
2023-02-06T17:01:52.840Z,335.67
2023-02-06T17:05:00.008Z,351.79
2023-02-06T17:08:16.579Z,414.52
2023-02-06T17:11:23.437Z,427.42
2023-02-06T17:14:34.896Z,444.51
2023-02-06T17:17:43.032Z,376.86
2023-02-06T17:20:53.731Z,382.55
2023-02-06T17:24:00.657Z,369.16
2023-02-06T17:27:07.467Z,383.99
2023-02-06T17:30:22.837Z,401.83
2023-02-06T17:33:28.962Z,500.42
2023-02-06T17:36:39.804Z,480.41
2023-02-06T17:39:45.866Z,513.53
2023-02-06T17:42:53.787Z,504.96
2023-02-06T17:46:02.528Z,472.22
2023-02-06T17:49:09.558Z,531.94
2023-02-06T17:52:16.488Z,608.85
2023-02-06T17:55:24.020Z,730.40
2023-02-06T17:58:33.464Z,815.76
2023-02-06T18:01:43.373Z,735.83
2023-02-06T18:04:53.613Z,682.77
2023-02-06T18:08:01.192Z,650.43
2023-02-06T18:11:12.304Z,611.91
2023-02-06T18:14:21.103Z,597.46
2023-02-06T18:17:31.129Z,638.18
2023-02-06T18:20:39.449Z,598.58
2023-02-06T18:23:46.591Z,553.23
2023-02-06T18:26:53.487Z,1634.43
2023-02-06T18:29:59.870Z,2534.95
2023-02-06T18:33:09.649Z,2870.33
2023-02-06T18:36:15.945Z,2833.05
2023-02-06T18:39:23.400Z,2207.67
2023-02-06T18:42:42.872Z,2173.46
2023-02-06T18:46:10.203Z,2724.39
2023-02-06T18:49:33.541Z,2494.07
2023-02-06T18:52:54.408Z,2221.68
2023-02-06T18:56:18.754Z,1925.04
2023-02-06T18:59:42.668Z,1723.46
2023-02-06T19:03:03.632Z,1768.88
2023-02-06T19:06:32.148Z,1698.49
2023-02-06T19:10:00.888Z,1653.64
2023-02-06T19:13:21.513Z,3799.15
2023-02-06T19:16:47.555Z,3215.82
2023-02-06T19:20:11.081Z,3011.88
2023-02-06T19:23:35.145Z,3737.36
2023-02-06T19:26:56.734Z,3047.33
2023-02-06T19:30:17.977Z,2310.10
2023-02-06T19:33:43.837Z,1894.01
2023-02-06T19:37:04.708Z,2258.69
2023-02-06T19:40:28.119Z,3156.14
2023-02-06T19:43:49.554Z,3787.41
2023-02-06T19:47:10.366Z,3436.11
2023-02-06T19:50:31.170Z,3164.38
2023-02-06T19:53:53.844Z,2952.21
2023-02-06T19:57:19.591Z,2724.46
2023-02-06T20:00:40.610Z,2935.89
2023-02-06T20:04:04.081Z,2895.87
2023-02-06T20:07:24.878Z,2618.24
2023-02-06T20:10:45.769Z,2758.44
2023-02-06T20:14:09.617Z,2548.54
2023-02-06T20:17:33.179Z,2417.35
2023-02-06T20:20:53.956Z,2251.18
2023-02-06T20:24:25.477Z,2245.41
2023-02-06T20:27:46.298Z,2234.59
2023-02-06T20:31:14.731Z,2365.24
2023-02-06T20:34:36.154Z,2414.57
2023-02-06T20:38:08.884Z,2677.55
2023-02-06T20:41:33.164Z,2871.28
2023-02-06T20:44:54.032Z,3425.54
2023-02-06T20:48:17.726Z,3863.46
2023-02-06T20:51:38.808Z,3425.90
2023-02-06T20:55:02.360Z,3049.43
2023-02-06T20:58:23.527Z,2948.60
2023-02-06T21:01:45.451Z,3106.58
2023-02-06T21:05:09.645Z,3253.16
2023-02-06T21:08:33.560Z,3045.78
2023-02-06T21:11:57.618Z,2980.27
2023-02-06T21:15:21.417Z,2860.25
2023-02-06T21:18:42.926Z,2775.53
2023-02-06T21:22:07.108Z,2807.18
2023-02-06T21:25:28.650Z,4139.74
2023-02-06T21:28:50.248Z,3274.41
2023-02-06T21:32:14.636Z,3118.92
2023-02-06T21:35:37.112Z,3805.63
2023-02-06T21:39:00.964Z,4076.58
2023-02-06T21:42:26.433Z,3674.32
2023-02-06T21:45:50.128Z,3386.14
2023-02-06T21:49:11.871Z,3184.93
2023-02-06T21:52:32.654Z,3353.37
2023-02-06T21:55:55.943Z,3317.43
2023-02-06T21:59:16.957Z,3451.39
2023-02-06T22:02:37.607Z,3163.42
2023-02-06T22:06:12.710Z,2974.10
2023-02-06T22:09:33.662Z,2789.36
2023-02-06T22:12:57.097Z,2827.19
2023-02-06T22:16:21.804Z,3071.65
2023-02-06T22:19:42.716Z,3027.11
2023-02-06T22:23:06.664Z,2709.83
2023-02-06T22:26:30.353Z,2727.72
2023-02-06T22:29:53.618Z,2810.49
2023-02-06T22:33:14.276Z,2780.46
2023-02-06T22:36:38.034Z,2735.79
2023-02-06T22:39:59.283Z,2828.17
2023-02-06T22:43:19.975Z,2781.98
2023-02-06T22:46:43.478Z,2752.14
2023-02-06T22:50:04.108Z,2740.43
2023-02-06T22:53:35.160Z,3302.53
2023-02-06T22:56:55.857Z,3170.05
2023-02-06T23:00:18.697Z,3060.62
2023-02-06T23:03:41.997Z,3089.69
2023-02-06T23:07:06.183Z,3040.93
2023-02-06T23:10:33.014Z,2994.72
2023-02-06T23:13:56.401Z,2711.51
2023-02-06T23:17:17.085Z,2808.55
2023-02-06T23:20:42.016Z,2341.20
2023-02-06T23:24:03.232Z,2400.21
2023-02-06T23:27:25.518Z,2286.96
2023-02-06T23:30:46.324Z,2311.39
2023-02-06T23:34:07.325Z,2389.31
2023-02-06T23:37:30.622Z,2669.06
2023-02-06T23:40:51.600Z,2151.68
2023-02-06T23:44:18.358Z,1992.26
2023-02-06T23:47:39.778Z,2093.21
2023-02-06T23:51:00.781Z,2398.21
2023-02-06T23:54:24.640Z,2145.80
2023-02-06T23:57:45.387Z,2045.30
